Time;durP1;ratioP1;P1;durP2;ratioP2;P2;SDS_P1;SDS_P2;PMS_P1;PMS_P2;Temp;Humidity;BMP_temperature;BMP_pressure;BME280_temperature;BME280_humidity;BME280_pressure;Samples;Min_cycle;Max_cycle;Signal;HPM_P1;HPM_P2
2021/05/17 00:01:33;;;;;;;0.40;0.20;;;9.60;99.90;;;;;;5071755;28;20507;-76
2021/05/17 00:04:03;;;;;;;0.40;0.20;;;9.60;99.90;;;;;;5070893;28;20383;-76
2021/05/17 00:06:28;;;;;;;0.40;0.30;;;9.70;99.90;;;;;;5071605;28;20390;-76
2021/05/17 00:08:54;;;;;;;0.40;0.20;;;9.70;99.90;;;;;;5070597;28;20466;-76
2021/05/17 00:11:20;;;;;;;0.40;0.30;;;9.70;99.90;;;;;;5071435;28;20433;-76
2021/05/17 00:13:46;;;;;;;0.40;0.20;;;9.60;99.90;;;;;;5071325;28;20870;-76
2021/05/17 00:16:12;;;;;;;0.40;0.20;;;9.70;99.90;;;;;;5070846;28;20455;-77
2021/05/17 00:18:38;;;;;;;0.40;0.20;;;9.70;99.90;;;;;;5071532;28;20376;-77
2021/05/17 00:21:04;;;;;;;0.40;0.20;;;9.80;99.90;;;;;;5070737;28;20408;-76
2021/05/17 00:23:30;;;;;;;0.40;0.20;;;9.70;99.90;;;;;;5070625;28;20746;-78
2021/05/17 00:25:56;;;;;;;0.40;0.20;;;9.60;99.90;;;;;;5070659;28;20380;-74
2021/05/17 00:28:22;;;;;;;0.40;0.40;;;9.80;99.90;;;;;;5071283;28;20429;-74
2021/05/17 00:30:48;;;;;;;0.40;0.20;;;9.90;99.90;;;;;;5070638;28;20400;-72
2021/05/17 00:33:14;;;;;;;0.40;0.20;;;10.00;99.90;;;;;;5070486;28;20384;-74
2021/05/17 00:35:40;;;;;;;0.40;0.20;;;10.00;99.90;;;;;;5070963;28;20430;-75
2021/05/17 00:38:06;;;;;;;0.40;0.20;;;10.00;99.90;;;;;;5070326;28;20726;-76
2021/05/17 00:40:32;;;;;;;0.40;0.20;;;10.00;99.90;;;;;;5071380;28;20412;-75
2021/05/17 00:42:58;;;;;;;0.40;0.20;;;10.10;99.90;;;;;;5069559;28;20400;-77
2021/05/17 00:45:24;;;;;;;0.40;0.20;;;10.00;99.90;;;;;;5070964;28;20866;-76
2021/05/17 00:47:52;;;;;;;0.40;0.20;;;10.10;99.90;;;;;;5071217;28;20434;-75
2021/05/17 00:50:25;;;;;;;0.40;0.20;;;10.10;99.90;;;;;;5070222;28;20372;-75
2021/05/17 00:52:52;;;;;;;0.40;0.20;;;10.10;99.90;;;;;;5071085;28;20372;-74
2021/05/17 00:55:18;;;;;;;0.40;0.20;;;10.00;99.90;;;;;;5070496;28;20394;-74
2021/05/17 00:57:45;;;;;;;0.40;0.20;;;10.10;99.90;;;;;;5070910;28;20394;-74
2021/05/17 01:00:13;;;;;;;0.40;0.20;;;10.00;99.90;;;;;;5069670;28;20398;-73
2021/05/17 01:02:39;;;;;;;0.45;0.38;;;10.10;99.90;;;;;;5071040;28;20383;-74
2021/05/17 01:05:06;;;;;;;0.40;0.20;;;10.30;99.90;;;;;;5069830;28;20460;-75
2021/05/17 01:07:32;;;;;;;0.40;0.20;;;10.20;99.90;;;;;;5070612;28;20474;-74
2021/05/17 01:09:59;;;;;;;0.40;0.20;;;10.20;99.90;;;;;;5070206;28;20983;-77
2021/05/17 01:12:26;;;;;;;0.40;0.20;;;10.10;99.90;;;;;;5070744;28;20379;-75
2021/05/17 01:14:57;;;;;;;0.40;0.20;;;10.30;99.90;;;;;;5070435;28;20380;-74
2021/05/17 01:17:25;;;;;;;0.40;0.20;;;10.70;99.90;;;;;;5070436;28;20841;-73
2021/05/17 01:20:16;;;;;;;0.40;0.20;;;10.30;99.90;;;;;;5069355;28;20742;-75
2021/05/17 01:23:46;;;;;;;0.40;0.20;;;10.30;99.90;;;;;;5063213;28;20408;-73
2021/05/17 01:25:39;;;;;;;0.40;0.20;;;10.30;99.90;;;;;;5061073;28;20395;-73
2021/05/17 01:28:07;;;;;;;0.40;0.20;;;10.30;99.90;;;;;;5069992;28;20433;-74
2021/05/17 01:30:33;;;;;;;0.40;0.20;;;10.30;99.90;;;;;;5069989;28;20403;-74
2021/05/17 01:32:59;;;;;;;0.40;0.20;;;10.40;99.90;;;;;;5069866;28;20850;-75
2021/05/17 01:35:25;;;;;;;0.40;0.20;;;10.30;99.90;;;;;;5069826;28;20783;-74
2021/05/17 01:37:51;;;;;;;0.40;0.20;;;10.40;99.90;;;;;;5070516;28;20379;-73
2021/05/17 01:40:19;;;;;;;0.40;0.20;;;10.50;99.90;;;;;;5069512;28;20582;-74
2021/05/17 01:42:46;;;;;;;0.40;0.20;;;10.50;99.90;;;;;;5070283;28;20433;-74
2021/05/17 01:45:13;;;;;;;0.40;0.20;;;10.50;99.90;;;;;;5069394;28;20383;-73
2021/05/17 01:47:43;;;;;;;0.40;0.20;;;10.60;99.90;;;;;;5070082;28;20940;-73
2021/05/17 01:50:11;;;;;;;0.40;0.20;;;10.60;99.90;;;;;;5069492;28;20411;-75
2021/05/17 01:52:38;;;;;;;0.40;0.20;;;10.60;99.90;;;;;;5070092;28;20379;-74
2021/05/17 01:55:09;;;;;;;0.40;0.20;;;10.80;99.90;;;;;;5073011;28;20459;-73
2021/05/17 01:57:35;;;;;;;0.40;0.20;;;10.70;99.90;;;;;;5074277;28;20379;-73
2021/05/17 02:00:02;;;;;;;0.40;0.20;;;10.80;99.90;;;;;;5073307;28;20391;-75
2021/05/17 02:02:28;;;;;;;0.40;0.30;;;10.70;99.90;;;;;;5073806;28;20422;-74
2021/05/17 02:04:55;;;;;;;0.40;0.20;;;10.70;99.90;;;;;;5073877;28;20528;-73
2021/05/17 02:07:21;;;;;;;0.40;0.20;;;10.50;99.90;;;;;;5073128;28;20760;-74
2021/05/17 02:09:53;;;;;;;0.40;0.20;;;10.30;99.90;;;;;;5073851;28;20435;-73
2021/05/17 02:12:23;;;;;;;0.40;0.20;;;10.10;99.90;;;;;;5073185;28;20453;-74
2021/05/17 02:14:52;;;;;;;0.40;0.20;;;10.20;99.90;;;;;;5073927;28;20870;-75
2021/05/17 02:17:22;;;;;;;0.40;0.20;;;10.00;99.90;;;;;;5072903;28;20410;-76
2021/05/17 02:19:48;;;;;;;0.40;0.20;;;10.00;99.90;;;;;;5073437;28;20746;-76
2021/05/17 02:22:19;;;;;;;0.40;0.20;;;10.10;99.90;;;;;;5072712;28;20868;-75
2021/05/17 02:24:46;;;;;;;0.40;0.20;;;10.10;99.90;;;;;;5073432;28;20411;-78
2021/05/17 02:27:16;;;;;;;0.40;0.20;;;10.10;99.90;;;;;;5071553;28;20442;-75
2021/05/17 02:29:43;;;;;;;0.40;0.20;;;10.10;99.90;;;;;;5073763;28;20411;-75
2021/05/17 02:32:10;;;;;;;0.40;0.20;;;10.60;99.90;;;;;;5071577;28;20423;-74
2021/05/17 02:34:36;;;;;;;0.40;0.20;;;10.00;99.90;;;;;;5073605;28;20376;-75
2021/05/17 02:37:02;;;;;;;0.40;0.20;;;10.10;99.90;;;;;;5071504;28;20407;-75
2021/05/17 02:39:28;;;;;;;0.40;0.20;;;10.10;99.90;;;;;;5073159;28;20411;-73
2021/05/17 02:41:56;;;;;;;0.40;0.20;;;10.10;99.90;;;;;;5073229;28;20491;-74
2021/05/17 02:44:22;;;;;;;0.40;0.20;;;10.00;99.90;;;;;;5072651;28;20380;-74
2021/05/17 02:46:52;;;;;;;0.40;0.20;;;10.00;99.90;;;;;;5073317;28;20433;-74
2021/05/17 02:49:18;;;;;;;0.40;0.20;;;10.00;99.90;;;;;;5072679;28;20384;-74
2021/05/17 02:51:44;;;;;;;0.40;0.20;;;10.00;99.90;;;;;;5073222;28;20380;-74
2021/05/17 02:54:24;;;;;;;0.40;0.20;;;10.10;99.90;;;;;;5072309;28;20454;-73
2021/05/17 02:57:09;;;;;;;0.40;0.20;;;10.20;99.90;;;;;;5073200;28;20444;-73
2021/05/17 02:59:38;;;;;;;0.40;0.20;;;10.10;99.90;;;;;;5073300;28;20394;-74
2021/05/17 03:02:07;;;;;;;0.40;0.20;;;10.20;99.90;;;;;;5072451;28;20491;-77
2021/05/17 03:04:38;;;;;;;0.40;0.20;;;10.20;99.90;;;;;;5072800;28;20382;-74
2021/05/17 03:07:09;;;;;;;0.40;0.20;;;10.20;99.90;;;;;;5072427;28;20376;-76
2021/05/17 03:09:36;;;;;;;0.40;0.20;;;10.30;99.90;;;;;;5073072;28;20410;-73
2021/05/17 03:12:03;;;;;;;0.40;0.20;;;10.30;99.90;;;;;;5072480;28;20375;-76
2021/05/17 03:14:30;;;;;;;0.40;0.20;;;10.40;99.90;;;;;;5072419;28;20410;-73
2021/05/17 03:17:00;;;;;;;0.40;0.20;;;10.40;99.90;;;;;;5072842;28;20367;-73
2021/05/17 03:19:27;;;;;;;0.40;0.20;;;10.70;99.90;;;;;;5070275;28;20388;-73
2021/05/17 03:21:55;;;;;;;0.40;0.20;;;10.40;99.90;;;;;;5072405;28;20404;-74
2021/05/17 03:24:23;;;;;;;0.40;0.20;;;10.40;99.90;;;;;;5071767;28;20376;-72
2021/05/17 03:26:52;;;;;;;0.40;0.30;;;10.50;99.90;;;;;;5072325;28;20372;-74
2021/05/17 03:29:17;;;;;;;0.40;0.20;;;10.40;99.90;;;;;;5071358;28;20557;-73
2021/05/17 03:31:43;;;;;;;0.40;0.20;;;11.20;99.90;;;;;;5072525;28;20525;-73
2021/05/17 03:34:09;;;;;;;0.40;0.20;;;10.50;99.90;;;;;;5071859;28;20421;-73
2021/05/17 03:36:38;;;;;;;0.40;0.20;;;10.50;99.90;;;;;;5071960;28;20399;-73
2021/05/17 03:39:04;;;;;;;0.40;0.20;;;10.80;99.90;;;;;;5072165;28;20375;-77
2021/05/17 03:41:29;;;;;;;0.40;0.20;;;10.50;99.90;;;;;;5071298;28;20404;-76
2021/05/17 03:43:55;;;;;;;0.40;0.20;;;10.50;99.90;;;;;;5072003;28;20376;-73
2021/05/17 03:46:21;;;;;;;0.40;0.20;;;10.50;99.90;;;;;;5071216;28;20371;-74
2021/05/17 03:48:46;;;;;;;0.40;0.20;;;10.50;99.90;;;;;;5071858;28;20391;-73
2021/05/17 03:51:12;;;;;;;0.40;0.20;;;10.40;99.90;;;;;;5071325;28;20734;-73
2021/05/17 03:53:39;;;;;;;0.40;0.20;;;10.50;99.90;;;;;;5070544;28;20463;-73
2021/05/17 03:56:05;;;;;;;0.40;0.20;;;10.60;99.90;;;;;;5070506;28;20742;-76
2021/05/17 03:58:31;;;;;;;0.40;0.40;;;10.20;99.90;;;;;;5070943;28;20380;-74
2021/05/17 04:00:58;;;;;;;0.40;0.20;;;9.30;99.90;;;;;;5071606;28;20465;-73
2021/05/17 04:03:25;;;;;;;0.40;0.20;;;10.20;99.90;;;;;;5071389;28;20390;-74
2021/05/17 04:13:48;;;;;;;0.40;0.20;;;10.40;99.90;;;;;;5071863;28;20378;-73
2021/05/17 04:16:13;;;;;;;0.40;0.20;;;10.30;99.90;;;;;;5070745;28;20392;-72
2021/05/17 04:18:39;;;;;;;0.40;0.20;;;10.30;99.90;;;;;;5071118;28;20907;-73
2021/05/17 04:21:05;;;;;;;0.40;0.20;;;10.40;99.90;;;;;;5071757;28;20443;-73
2021/05/17 04:23:31;;;;;;;0.40;0.20;;;10.40;99.90;;;;;;5070816;28;20403;-73
2021/05/17 04:25:57;;;;;;;0.40;0.20;;;10.40;99.90;;;;;;5071710;28;20897;-74
2021/05/17 04:28:22;;;;;;;0.40;0.20;;;10.40;99.90;;;;;;5070684;28;20433;-73
2021/05/17 04:30:48;;;;;;;0.40;0.20;;;10.40;99.90;;;;;;5071148;28;20431;-72
2021/05/17 04:33:14;;;;;;;0.40;0.20;;;10.40;99.90;;;;;;5070716;28;20399;-73
2021/05/17 04:35:40;;;;;;;0.40;0.20;;;10.40;99.90;;;;;;5071260;28;20399;-73
2021/05/17 04:38:05;;;;;;;0.40;0.20;;;10.40;99.90;;;;;;5071315;28;20375;-72
2021/05/17 04:40:31;;;;;;;0.40;0.20;;;10.40;99.90;;;;;;5070583;28;20429;-73
2021/05/17 04:42:57;;;;;;;0.40;0.20;;;10.40;99.90;;;;;;5071622;28;20379;-73
2021/05/17 04:45:24;;;;;;;0.40;0.40;;;10.60;99.90;;;;;;5070048;28;20391;-73
2021/05/17 04:47:51;;;;;;;0.40;0.20;;;10.40;99.90;;;;;;5071350;28;20382;-73
2021/05/17 04:50:17;;;;;;;0.40;0.20;;;10.50;99.90;;;;;;5070542;28;20395;-73
2021/05/17 04:52:43;;;;;;;0.40;0.30;;;10.40;99.90;;;;;;5071176;28;20375;-72
2021/05/17 04:55:10;;;;;;;0.40;0.20;;;10.20;99.90;;;;;;5070899;28;20372;-75
2021/05/17 04:57:36;;;;;;;0.40;0.20;;;10.40;99.90;;;;;;5070972;28;20371;-73
2021/05/17 05:00:06;;;;;;;0.40;0.30;;;10.40;99.90;;;;;;5070832;28;20388;-72
2021/05/17 05:02:32;;;;;;;0.40;0.30;;;10.30;99.90;;;;;;5069945;28;20415;-73
2021/05/17 05:04:57;;;;;;;0.40;0.20;;;10.40;99.90;;;;;;5070834;28;20741;-73
2021/05/17 05:07:23;;;;;;;0.40;0.20;;;10.40;99.90;;;;;;5069984;28;20449;-72
2021/05/17 05:09:49;;;;;;;0.40;0.20;;;10.40;99.90;;;;;;5071024;28;20379;-72
2021/05/17 05:12:15;;;;;;;0.40;0.20;;;10.30;99.90;;;;;;5069717;28;20388;-76
2021/05/17 05:14:41;;;;;;;0.40;0.20;;;10.40;99.90;;;;;;5070032;28;20467;-75
2021/05/17 05:17:06;;;;;;;0.40;0.20;;;10.30;99.90;;;;;;5070814;28;20380;-73
2021/05/17 05:19:32;;;;;;;0.40;0.20;;;10.30;99.90;;;;;;5070283;28;20373;-73
2021/05/17 05:21:58;;;;;;;0.40;0.20;;;10.40;99.90;;;;;;5069414;28;20418;-73
2021/05/17 05:24:24;;;;;;;0.40;0.20;;;10.40;99.90;;;;;;5070366;28;20774;-73
2021/05/17 05:27:06;;;;;;;0.40;0.20;;;10.30;99.90;;;;;;5071164;28;20437;-73
2021/05/17 05:29:45;;;;;;;0.40;0.20;;;10.40;99.90;;;;;;5069612;28;20570;-73
2021/05/17 05:34:51;;;;;;;0.40;0.20;;;10.50;99.90;;;;;;5069691;28;20487;-75
2021/05/17 05:37:17;;;;;;;0.40;0.20;;;10.50;99.90;;;;;;5068687;28;20411;-76
2021/05/17 05:39:44;;;;;;;0.40;0.20;;;11.10;99.90;;;;;;5070567;28;20394;-74
2021/05/17 05:42:10;;;;;;;0.40;0.20;;;10.40;99.90;;;;;;5069941;28;20408;-71
2021/05/17 05:44:47;;;;;;;0.40;0.20;;;10.60;99.90;;;;;;5068816;28;20376;-72
2021/05/17 05:47:15;;;;;;;3.80;0.82;;;10.60;99.90;;;;;;5069173;28;20482;-79
2021/05/17 05:49:46;;;;;;;0.40;0.20;;;10.50;99.90;;;;;;5069106;28;20388;-72
2021/05/17 05:52:12;;;;;;;0.40;0.20;;;10.50;99.90;;;;;;5069006;28;20379;-81
2021/05/17 05:54:38;;;;;;;0.40;0.30;;;10.50;99.90;;;;;;5070927;28;20476;-72
2021/05/17 05:57:07;;;;;;;0.40;0.20;;;10.50;99.90;;;;;;5070262;28;20466;-72
2021/05/17 05:59:32;;;;;;;0.40;0.20;;;10.50;99.90;;;;;;5069544;28;20449;-72
2021/05/17 06:01:58;;;;;;;0.40;0.20;;;10.60;99.90;;;;;;5069953;28;20412;-72
2021/05/17 06:04:24;;;;;;;0.40;0.20;;;10.50;99.90;;;;;;5069184;28;20403;-73
2021/05/17 06:06:50;;;;;;;0.40;0.20;;;10.60;99.90;;;;;;5070300;28;20858;-71
2021/05/17 06:09:16;;;;;;;0.40;0.20;;;10.60;99.90;;;;;;5068353;28;20384;-75
2021/05/17 06:11:41;;;;;;;0.40;0.20;;;10.70;99.90;;;;;;5069757;28;20861;-72
2021/05/17 06:14:09;;;;;;;0.40;0.20;;;10.60;99.90;;;;;;5070186;28;20383;-72
2021/05/17 06:16:35;;;;;;;0.40;0.20;;;10.50;99.90;;;;;;5069421;28;20371;-72
2021/05/17 06:19:01;;;;;;;0.40;0.20;;;10.60;99.90;;;;;;5070130;28;20387;-72
2021/05/17 06:21:28;;;;;;;0.40;0.20;;;10.60;99.90;;;;;;5068590;28;20977;-71
2021/05/17 06:23:57;;;;;;;0.40;0.20;;;10.70;99.90;;;;;;5070129;28;20391;-75
2021/05/17 06:26:24;;;;;;;0.40;0.20;;;10.80;99.90;;;;;;5068614;28;20746;-74
2021/05/17 06:28:50;;;;;;;0.40;0.20;;;10.90;99.90;;;;;;5069834;28;20413;-73
2021/05/17 06:31:16;;;;;;;0.40;0.20;;;10.90;99.90;;;;;;5067702;28;20396;-75
2021/05/17 06:33:43;;;;;;;0.40;0.20;;;11.00;99.90;;;;;;5069791;28;20384;-73
2021/05/17 06:36:12;;;;;;;0.40;0.20;;;10.90;99.90;;;;;;5068480;28;20492;-74
2021/05/17 06:38:41;;;;;;;0.40;0.20;;;10.90;99.90;;;;;;5051432;28;20393;-73
2021/05/17 06:41:07;;;;;;;0.40;0.20;;;11.00;99.90;;;;;;5071944;28;20491;-74
2021/05/17 06:43:35;;;;;;;0.40;0.20;;;11.00;99.90;;;;;;5072450;28;20388;-74
2021/05/17 06:46:03;;;;;;;0.40;0.20;;;11.20;99.90;;;;;;5073465;28;20415;-73
2021/05/17 06:48:29;;;;;;;0.40;0.20;;;11.20;99.90;;;;;;5071932;28;20748;-74
2021/05/17 06:50:55;;;;;;;0.40;0.30;;;11.20;99.90;;;;;;5073046;28;20385;-73
2021/05/17 06:53:21;;;;;;;0.40;0.20;;;11.20;99.90;;;;;;5072079;28;20415;-75
2021/05/17 06:56:00;;;;;;;0.40;0.20;;;11.20;99.90;;;;;;5070136;28;20384;-74
2021/05/17 06:58:34;;;;;;;0.40;0.20;;;11.30;99.90;;;;;;5067084;28;20383;-73
2021/05/17 07:01:00;;;;;;;0.40;0.25;;;11.30;99.90;;;;;;5072691;28;20411;-75
2021/05/17 07:03:26;;;;;;;0.40;0.20;;;11.40;99.90;;;;;;5069966;28;20487;-73
2021/05/17 07:05:55;;;;;;;0.40;0.20;;;11.40;99.90;;;;;;5071510;28;20463;-74
2021/05/17 07:13:50;;;;;;;0.40;0.20;;;11.60;99.90;;;;;;5069890;28;20455;-73
2021/05/17 07:16:17;;;;;;;0.40;0.20;;;11.60;99.90;;;;;;5071867;28;20474;-73
2021/05/17 07:18:42;;;;;;;0.40;0.30;;;11.70;99.90;;;;;;5070152;28;20954;-73
2021/05/17 07:23:41;;;;;;;0.40;0.20;;;12.00;99.90;;;;;;5070184;28;20375;-74
2021/05/17 07:26:18;;;;;;;0.40;0.30;;;12.10;99.90;;;;;;5069487;28;20391;-75
2021/05/17 07:28:46;;;;;;;0.40;0.20;;;12.10;99.90;;;;;;5071520;28;20433;-74
2021/05/17 07:31:12;;;;;;;0.40;0.20;;;12.00;99.90;;;;;;5072345;28;20398;-72
2021/05/17 07:33:39;;;;;;;0.40;0.20;;;12.10;99.90;;;;;;5070981;28;20452;-74
2021/05/17 07:36:05;;;;;;;0.40;0.20;;;12.20;99.90;;;;;;5071687;28;20400;-73
2021/05/17 07:38:32;;;;;;;0.40;0.20;;;12.20;99.90;;;;;;5071236;28;20374;-74
2021/05/17 07:41:03;;;;;;;0.40;0.20;;;12.40;99.90;;;;;;5071990;28;20611;-74
2021/05/17 07:43:29;;;;;;;0.40;0.20;;;12.50;99.90;;;;;;5068672;28;20384;-74
2021/05/17 07:45:55;;;;;;;0.40;0.20;;;12.70;99.90;;;;;;5071784;28;20384;-74
2021/05/17 07:48:21;;;;;;;0.40;0.20;;;12.60;99.90;;;;;;5070997;28;20778;-75
2021/05/17 07:50:48;;;;;;;0.40;0.30;;;12.40;99.90;;;;;;5071737;28;20453;-75
2021/05/17 07:53:14;;;;;;;0.40;0.20;;;12.50;99.90;;;;;;5071769;28;20384;-74
2021/05/17 07:55:41;;;;;;;0.40;0.20;;;12.60;99.90;;;;;;5070767;28;20376;-75
2021/05/17 07:58:07;;;;;;;0.40;0.20;;;12.50;99.90;;;;;;5071671;28;20384;-74
2021/05/17 08:00:33;;;;;;;0.40;0.20;;;12.30;99.90;;;;;;5068670;28;20445;-74
2021/05/17 08:02:59;;;;;;;0.40;0.20;;;12.20;99.90;;;;;;5071625;28;20380;-74
2021/05/17 08:05:25;;;;;;;0.40;0.20;;;11.90;99.90;;;;;;5070681;28;20368;-75
2021/05/17 08:07:51;;;;;;;0.40;0.20;;;11.70;99.90;;;;;;5071541;28;20388;-74
2021/05/17 08:10:17;;;;;;;0.40;0.20;;;11.60;99.90;;;;;;5071694;28;20467;-77
2021/05/17 08:12:42;;;;;;;0.40;0.20;;;11.60;99.90;;;;;;5071172;28;20896;-74
2021/05/17 08:15:08;;;;;;;0.40;0.20;;;11.70;99.90;;;;;;5071373;28;20387;-75
2021/05/17 08:17:35;;;;;;;0.40;0.20;;;11.90;99.90;;;;;;5070705;28;20742;-74
2021/05/17 08:20:02;;;;;;;0.40;0.20;;;11.80;99.90;;;;;;5071287;28;20376;-74
2021/05/17 08:22:28;;;;;;;0.40;0.20;;;11.90;99.90;;;;;;5070955;28;20460;-74
2021/05/17 08:24:55;;;;;;;0.40;0.30;;;12.00;99.90;;;;;;5071468;28;20463;-74
2021/05/17 08:27:22;;;;;;;0.40;0.20;;;11.90;99.90;;;;;;5071129;28;20387;-76
2021/05/17 08:29:48;;;;;;;0.40;0.20;;;12.30;99.90;;;;;;5071184;28;20392;-74
2021/05/17 08:32:13;;;;;;;0.40;0.20;;;11.70;99.90;;;;;;5071723;28;20855;-74
2021/05/17 08:34:39;;;;;;;0.40;0.30;;;11.80;99.90;;;;;;5070189;28;20475;-73
2021/05/17 08:37:05;;;;;;;0.40;0.30;;;11.80;99.90;;;;;;5071329;28;20402;-73
2021/05/17 08:39:31;;;;;;;0.40;0.30;;;11.90;99.90;;;;;;5070325;28;20430;-77
2021/05/17 08:41:58;;;;;;;0.40;0.20;;;12.10;99.90;;;;;;5070608;28;20408;-74
2021/05/17 08:44:24;;;;;;;0.47;0.43;;;12.20;99.90;;;;;;5070255;28;20411;-78
2021/05/17 08:46:50;;;;;;;0.40;0.20;;;12.00;99.90;;;;;;5054804;28;20430;-75
2021/05/17 08:49:17;;;;;;;0.40;0.20;;;12.00;99.90;;;;;;5071130;28;20407;-74
2021/05/17 08:51:45;;;;;;;0.40;0.20;;;12.20;99.90;;;;;;5068065;28;20838;-75
2021/05/17 08:54:12;;;;;;;3.50;1.00;;;12.30;99.90;;;;;;5070722;28;20372;-73
2021/05/17 08:56:43;;;;;;;0.40;0.20;;;11.90;99.90;;;;;;5069927;28;20483;-74
2021/05/17 08:59:11;;;;;;;0.40;0.20;;;11.70;99.90;;;;;;5071253;28;20730;-75
2021/05/17 09:01:37;;;;;;;0.70;0.50;;;11.60;99.90;;;;;;5069576;28;20454;-74
2021/05/17 09:04:06;;;;;;;0.40;0.20;;;11.50;99.90;;;;;;5070167;28;20403;-74
2021/05/17 09:06:49;;;;;;;0.40;0.20;;;11.60;99.90;;;;;;5070516;28;20379;-75
2021/05/17 09:09:35;;;;;;;0.40;0.30;;;11.30;99.90;;;;;;5069680;28;20765;-73
2021/05/17 09:12:05;;;;;;;0.40;0.20;;;11.10;99.90;;;;;;5071027;28;20742;-74
2021/05/17 09:14:32;;;;;;;0.40;0.30;;;11.30;99.90;;;;;;5069786;28;20379;-75
2021/05/17 09:17:09;;;;;;;0.40;0.20;;;11.50;99.90;;;;;;5070924;28;20462;-73
2021/05/17 09:19:37;;;;;;;0.40;0.20;;;11.90;99.90;;;;;;5069820;28;20800;-74
2021/05/17 09:22:14;;;;;;;0.40;0.20;;;12.10;99.90;;;;;;5070798;28;20502;-73
2021/05/17 09:24:40;;;;;;;0.40;0.20;;;12.20;99.90;;;;;;5069789;28;20887;-72
2021/05/17 09:27:08;;;;;;;0.40;0.20;;;12.50;99.90;;;;;;5070789;28;20383;-73
2021/05/17 09:29:45;;;;;;;0.40;0.20;;;12.50;99.90;;;;;;5068482;28;20814;-73
2021/05/17 09:32:17;;;;;;;0.40;0.30;;;12.50;99.90;;;;;;5070817;28;20392;-73
2021/05/17 09:34:46;;;;;;;0.40;0.20;;;12.40;99.90;;;;;;5069919;28;20956;-72
2021/05/17 09:37:13;;;;;;;0.40;0.20;;;12.40;99.90;;;;;;5070695;28;20435;-75
2021/05/17 09:39:48;;;;;;;0.40;0.20;;;12.30;99.90;;;;;;5069767;28;20387;-73
2021/05/17 09:42:14;;;;;;;0.40;0.20;;;12.30;99.90;;;;;;5070702;28;20415;-74
2021/05/17 09:44:45;;;;;;;0.40;0.20;;;12.20;99.90;;;;;;5069891;28;20380;-73
2021/05/17 09:47:14;;;;;;;0.40;0.20;;;12.30;99.90;;;;;;5069323;28;20428;-73
2021/05/17 09:49:46;;;;;;;0.40;0.20;;;12.50;99.90;;;;;;5069400;28;20532;-75
2021/05/17 09:52:30;;;;;;;0.40;0.20;;;12.60;99.90;;;;;;5070713;28;20743;-73
2021/05/17 09:55:00;;;;;;;0.40;0.20;;;12.50;99.90;;;;;;5070611;28;20386;-75
2021/05/17 09:57:47;;;;;;;0.40;0.20;;;12.70;99.90;;;;;;5068981;28;20395;-74
2021/05/17 10:00:20;;;;;;;0.40;0.20;;;12.80;99.90;;;;;;5070426;28;20416;-73
2021/05/17 10:02:47;;;;;;;0.40;0.30;;;12.80;99.90;;;;;;5069590;28;20434;-75
2021/05/17 10:05:18;;;;;;;0.40;0.20;;;12.30;99.90;;;;;;5070399;28;20411;-75
2021/05/17 10:07:47;;;;;;;0.40;0.20;;;11.80;99.90;;;;;;5069441;28;20434;-75
2021/05/17 10:10:14;;;;;;;0.40;0.20;;;11.50;99.90;;;;;;5069100;28;20470;-76
2021/05/17 10:12:41;;;;;;;0.40;0.30;;;11.40;99.90;;;;;;5069312;28;20391;-75
2021/05/17 10:15:12;;;;;;;0.40;0.20;;;11.30;99.90;;;;;;5070779;28;20423;-76
2021/05/17 10:17:39;;;;;;;0.40;0.20;;;11.30;99.90;;;;;;5073648;28;20497;-75
2021/05/17 10:20:09;;;;;;;0.40;0.20;;;11.20;99.90;;;;;;5074006;28;20375;-75
2021/05/17 10:22:36;;;;;;;0.40;0.20;;;11.10;99.90;;;;;;5073274;28;20522;-73
2021/05/17 10:25:05;;;;;;;0.40;0.20;;;11.10;99.90;;;;;;5073836;28;20375;-75
2021/05/17 10:27:32;;;;;;;0.40;0.20;;;11.40;99.90;;;;;;5073036;28;20415;-74
2021/05/17 10:30:01;;;;;;;0.40;0.20;;;11.70;99.90;;;;;;5073756;28;20389;-74
2021/05/17 10:32:45;;;;;;;0.40;0.20;;;12.00;99.90;;;;;;5073462;28;20530;-75
2021/05/17 10:35:20;;;;;;;0.40;0.20;;;12.50;99.90;;;;;;5073517;28;20387;-75
2021/05/17 10:37:47;;;;;;;0.40;0.20;;;12.30;99.90;;;;;;5073185;28;20378;-75
2021/05/17 10:40:37;;;;;;;0.40;0.20;;;12.60;99.90;;;;;;5073635;28;20384;-75
2021/05/17 10:48:24;;;;;;;0.40;0.20;;;12.60;99.90;;;;;;5073732;28;20776;-74
2021/05/17 10:51:10;;;;;;;0.40;0.20;;;12.70;99.90;;;;;;5072516;28;20439;-74
2021/05/17 10:53:58;;;;;;;0.40;0.30;;;12.70;99.90;;;;;;5072629;28;20441;-74
2021/05/17 10:56:50;;;;;;;0.40;0.20;;;12.70;99.90;;;;;;5071999;28;20395;-74
2021/05/17 11:02:28;;;;;;;0.40;0.20;;;12.70;99.90;;;;;;5072856;28;20460;-73
2021/05/17 11:05:03;;;;;;;0.40;0.20;;;13.00;99.90;;;;;;5072833;28;20375;-74
2021/05/17 11:07:33;;;;;;;0.40;0.20;;;13.60;99.90;;;;;;5072836;28;20399;-74
2021/05/17 11:10:12;;;;;;;0.40;0.20;;;13.40;99.90;;;;;;5073054;28;20439;-74
2021/05/17 11:12:40;;;;;;;0.40;0.20;;;13.00;99.90;;;;;;5070848;28;20486;-74
2021/05/17 11:15:21;;;;;;;0.40;0.20;;;12.80;99.90;;;;;;5072828;28;20387;-76
2021/05/17 11:18:07;;;;;;;0.40;0.20;;;13.10;99.90;;;;;;5072111;28;20429;-74
2021/05/17 11:20:43;;;;;;;0.40;0.20;;;13.30;99.90;;;;;;5072229;28;20380;-74
2021/05/17 11:23:15;;;;;;;0.40;0.30;;;13.60;99.90;;;;;;5072676;28;20433;-72
2021/05/17 11:26:01;;;;;;;0.40;0.20;;;13.90;99.90;;;;;;5071628;28;20388;-73
2021/05/17 11:28:42;;;;;;;0.40;0.20;;;14.20;99.90;;;;;;5072861;28;20390;-74
2021/05/17 11:31:26;;;;;;;0.40;0.20;;;13.80;99.90;;;;;;5071353;28;20830;-75
2021/05/17 11:33:59;;;;;;;0.40;0.30;;;14.20;99.90;;;;;;5071676;28;20831;-72
2021/05/17 11:36:47;;;;;;;0.40;0.30;;;13.80;99.90;;;;;;5071992;28;20898;-73
2021/05/17 11:39:22;;;;;;;0.40;0.20;;;13.50;99.90;;;;;;5072715;28;20388;-73
2021/05/17 11:42:02;;;;;;;0.47;0.43;;;13.60;99.90;;;;;;5071684;28;20407;-72
2021/05/17 11:45:09;;;;;;;0.40;0.20;;;13.60;99.90;;;;;;5072469;28;20465;-73
2021/05/17 11:47:35;;;;;;;0.40;0.20;;;14.00;99.90;;;;;;5071497;28;20425;-75
2021/05/17 11:50:03;;;;;;;0.40;0.30;;;15.30;99.90;;;;;;5072437;28;20376;-73
2021/05/17 11:52:32;;;;;;;0.40;0.20;;;15.50;99.90;;;;;;5072268;28;20387;-75
2021/05/17 11:55:02;;;;;;;0.40;0.30;;;16.10;97.50;;;;;;5071821;28;20376;-72
2021/05/17 11:57:41;;;;;;;0.40;0.30;;;16.00;97.30;;;;;;5072176;28;20483;-76
2021/05/17 12:00:16;;;;;;;0.40;0.20;;;16.20;96.70;;;;;;5071907;28;20391;-74
2021/05/17 12:02:46;;;;;;;0.40;0.20;;;16.10;95.00;;;;;;5050969;28;20420;-74
2021/05/17 12:05:13;;;;;;;0.40;0.20;;;15.10;97.60;;;;;;5052035;28;20385;-75
2021/05/17 12:07:47;;;;;;;0.40;0.20;;;15.50;97.60;;;;;;5049880;28;20390;-74
2021/05/17 12:10:15;;;;;;;0.40;0.20;;;14.80;97.00;;;;;;5051974;28;20393;-75
2021/05/17 12:12:41;;;;;;;0.40;0.30;;;15.10;98.10;;;;;;5050692;28;20400;-74
2021/05/17 12:15:10;;;;;;;0.40;0.20;;;15.50;96.30;;;;;;5051713;28;20883;-75
2021/05/17 12:17:37;;;;;;;0.40;0.30;;;15.40;95.40;;;;;;5051013;28;20389;-76
2021/05/17 12:20:03;;;;;;;0.40;0.20;;;15.70;95.90;;;;;;5083997;28;20739;-74
2021/05/17 12:22:39;;;;;;;0.40;0.30;;;15.60;94.60;;;;;;5051441;28;20496;-76
2021/05/17 12:25:15;;;;;;;0.40;0.30;;;15.20;95.40;;;;;;5051916;28;20405;-76
2021/05/17 12:27:43;;;;;;;0.40;0.30;;;16.20;95.40;;;;;;5051040;28;20856;-74
2021/05/17 12:30:18;;;;;;;0.40;0.30;;;16.60;93.40;;;;;;5050564;28;20401;-75
2021/05/17 12:32:55;;;;;;;0.40;0.20;;;16.70;92.80;;;;;;5050112;28;20891;-76
2021/05/17 12:35:20;;;;;;;0.40;0.40;;;16.90;92.30;;;;;;5050478;28;20744;-77
2021/05/17 12:37:49;;;;;;;0.40;0.30;;;15.70;93.50;;;;;;5049635;28;20382;-74
2021/05/17 12:40:23;;;;;;;0.40;0.30;;;16.00;96.50;;;;;;5051054;28;20394;-76
2021/05/17 12:43:05;;;;;;;0.40;0.30;;;14.70;97.60;;;;;;5082014;28;20467;-75
2021/05/17 12:45:32;;;;;;;0.40;0.20;;;14.50;97.30;;;;;;5050871;28;20725;-73
2021/05/17 12:48:00;;;;;;;0.40;0.20;;;13.90;99.30;;;;;;5049315;28;20500;-75
2021/05/17 12:50:30;;;;;;;0.40;0.30;;;13.90;99.90;;;;;;5083512;28;20810;-74
2021/05/17 12:53:09;;;;;;;0.40;0.20;;;14.00;99.90;;;;;;5050292;28;20847;-74
2021/05/17 12:55:49;;;;;;;0.40;0.20;;;14.00;99.90;;;;;;5050747;28;20431;-75
2021/05/17 12:58:39;;;;;;;0.40;0.20;;;13.50;99.90;;;;;;5083419;28;20762;-76
2021/05/17 13:01:09;;;;;;;0.40;0.30;;;13.50;99.90;;;;;;5048932;28;20414;-76
2021/05/17 13:03:46;;;;;;;0.40;0.20;;;13.40;99.90;;;;;;5050839;28;20461;-79
2021/05/17 13:06:30;;;;;;;0.40;0.20;;;13.10;99.90;;;;;;5050925;28;20397;-74
2021/05/17 13:09:07;;;;;;;0.40;0.20;;;12.60;99.90;;;;;;5049987;28;20540;-76
2021/05/17 13:11:43;;;;;;;0.40;0.20;;;12.40;99.90;;;;;;5051016;28;20901;-77
2021/05/17 13:14:18;;;;;;;0.40;0.20;;;12.20;99.90;;;;;;5050446;28;20443;-77
2021/05/17 13:16:44;;;;;;;0.40;0.20;;;12.20;99.90;;;;;;5049842;28;20847;-76
2021/05/17 13:21:56;;;;;;;0.40;0.20;;;12.20;99.90;;;;;;5050489;28;20401;-78
2021/05/17 13:32:26;;;;;;;0.40;0.20;;;12.50;99.90;;;;;;5067325;28;20423;-79
2021/05/17 13:34:51;;;;;;;0.40;0.20;;;13.00;99.90;;;;;;5067545;28;20376;-79
2021/05/17 13:37:17;;;;;;;0.40;0.20;;;13.20;99.90;;;;;;5068402;28;20411;-79